sensor_id;sensor_type;location;lat;lon;timestamp;temperature;humidity
20400;DHT22;10359;53.596;22.520;2023-02-22T00:01:20;2.50;1.00
20400;DHT22;10359;53.596;22.520;2023-02-22T00:04:22;2.50;1.00
20400;DHT22;10359;53.596;22.520;2023-02-22T00:07:12;2.50;1.00
20400;DHT22;10359;53.596;22.520;2023-02-22T00:10:02;2.50;1.00
20400;DHT22;10359;53.596;22.520;2023-02-22T00:12:56;2.50;1.00
20400;DHT22;10359;53.596;22.520;2023-02-22T00:15:47;2.50;1.00
20400;DHT22;10359;53.596;22.520;2023-02-22T00:18:37;2.40;1.00
20400;DHT22;10359;53.596;22.520;2023-02-22T00:21:27;2.40;1.00
20400;DHT22;10359;53.596;22.520;2023-02-22T00:24:18;2.40;1.00
20400;DHT22;10359;53.596;22.520;2023-02-22T00:27:14;2.40;1.00
20400;DHT22;10359;53.596;22.520;2023-02-22T00:30:04;2.50;1.00
20400;DHT22;10359;53.596;22.520;2023-02-22T00:32:58;2.50;1.00
20400;DHT22;10359;53.596;22.520;2023-02-22T00:35:47;2.40;1.00
20400;DHT22;10359;53.596;22.520;2023-02-22T00:38:39;2.50;1.00
20400;DHT22;10359;53.596;22.520;2023-02-22T00:41:28;2.40;1.00
20400;DHT22;10359;53.596;22.520;2023-02-22T00:44:18;2.50;1.00
20400;DHT22;10359;53.596;22.520;2023-02-22T00:47:08;2.50;1.00
20400;DHT22;10359;53.596;22.520;2023-02-22T00:50:00;2.50;1.00
20400;DHT22;10359;53.596;22.520;2023-02-22T00:52:51;2.50;1.00
20400;DHT22;10359;53.596;22.520;2023-02-22T00:55:41;2.40;1.00
20400;DHT22;10359;53.596;22.520;2023-02-22T00:58:31;2.50;1.00
20400;DHT22;10359;53.596;22.520;2023-02-22T01:01:20;2.40;1.00
20400;DHT22;10359;53.596;22.520;2023-02-22T01:04:11;2.40;1.00
20400;DHT22;10359;53.596;22.520;2023-02-22T01:07:03;2.40;1.00
20400;DHT22;10359;53.596;22.520;2023-02-22T01:09:53;2.50;1.00
20400;DHT22;10359;53.596;22.520;2023-02-22T01:12:42;2.40;1.00
20400;DHT22;10359;53.596;22.520;2023-02-22T01:15:33;2.40;1.00
20400;DHT22;10359;53.596;22.520;2023-02-22T01:18:23;2.50;1.00
20400;DHT22;10359;53.596;22.520;2023-02-22T01:21:13;2.40;1.00
20400;DHT22;10359;53.596;22.520;2023-02-22T01:24:04;2.40;1.00
20400;DHT22;10359;53.596;22.520;2023-02-22T01:26:54;2.40;1.00
20400;DHT22;10359;53.596;22.520;2023-02-22T01:29:44;2.40;1.00
20400;DHT22;10359;53.596;22.520;2023-02-22T01:32:34;2.30;1.00
20400;DHT22;10359;53.596;22.520;2023-02-22T01:35:27;2.30;1.00
20400;DHT22;10359;53.596;22.520;2023-02-22T01:38:17;2.30;1.00
20400;DHT22;10359;53.596;22.520;2023-02-22T01:41:08;2.20;1.00
20400;DHT22;10359;53.596;22.520;2023-02-22T01:47:04;2.30;1.00
20400;DHT22;10359;53.596;22.520;2023-02-22T01:49:55;2.30;1.00
20400;DHT22;10359;53.596;22.520;2023-02-22T01:52:45;2.30;1.00
20400;DHT22;10359;53.596;22.520;2023-02-22T01:55:35;2.30;1.00
20400;DHT22;10359;53.596;22.520;2023-02-22T01:58:29;2.30;1.00
20400;DHT22;10359;53.596;22.520;2023-02-22T02:01:21;2.30;1.00
20400;DHT22;10359;53.596;22.520;2023-02-22T02:04:16;2.30;1.00
20400;DHT22;10359;53.596;22.520;2023-02-22T02:07:10;2.20;1.00
20400;DHT22;10359;53.596;22.520;2023-02-22T02:10:04;2.30;1.00
20400;DHT22;10359;53.596;22.520;2023-02-22T06:53:03;0.70;1.00
20400;DHT22;10359;53.596;22.520;2023-02-22T06:55:53;0.70;1.00
20400;DHT22;10359;53.596;22.520;2023-02-22T06:58:43;0.80;1.00
20400;DHT22;10359;53.596;22.520;2023-02-22T07:01:33;0.80;1.00
20400;DHT22;10359;53.596;22.520;2023-02-22T07:04:23;0.70;1.00
20400;DHT22;10359;53.596;22.520;2023-02-22T07:07:13;0.80;1.00
20400;DHT22;10359;53.596;22.520;2023-02-22T07:10:05;0.80;1.00
20400;DHT22;10359;53.596;22.520;2023-02-22T07:12:56;0.80;1.00
20400;DHT22;10359;53.596;22.520;2023-02-22T07:15:46;0.90;1.00
20400;DHT22;10359;53.596;22.520;2023-02-22T07:18:36;0.90;1.00
20400;DHT22;10359;53.596;22.520;2023-02-22T07:21:27;1.00;1.00
20400;DHT22;10359;53.596;22.520;2023-02-22T07:24:20;0.90;1.00
20400;DHT22;10359;53.596;22.520;2023-02-22T07:27:12;1.00;1.00
20400;DHT22;10359;53.596;22.520;2023-02-22T07:30:02;0.90;1.00
20400;DHT22;10359;53.596;22.520;2023-02-22T07:32:53;0.90;1.00
20400;DHT22;10359;53.596;22.520;2023-02-22T07:35:45;0.90;1.00
20400;DHT22;10359;53.596;22.520;2023-02-22T07:38:35;0.80;99.90
20400;DHT22;10359;53.596;22.520;2023-02-22T07:41:25;0.80;99.90
20400;DHT22;10359;53.596;22.520;2023-02-22T07:44:17;0.90;1.00
20400;DHT22;10359;53.596;22.520;2023-02-22T07:47:07;0.90;99.90
20400;DHT22;10359;53.596;22.520;2023-02-22T07:49:59;0.80;99.90
20400;DHT22;10359;53.596;22.520;2023-02-22T07:52:51;0.90;99.90
20400;DHT22;10359;53.596;22.520;2023-02-22T07:55:41;0.80;99.90
20400;DHT22;10359;53.596;22.520;2023-02-22T07:58:32;0.80;99.90
20400;DHT22;10359;53.596;22.520;2023-02-22T08:01:23;0.70;99.90
20400;DHT22;10359;53.596;22.520;2023-02-22T08:04:13;0.70;99.90
20400;DHT22;10359;53.596;22.520;2023-02-22T08:07:03;0.90;99.90
20400;DHT22;10359;53.596;22.520;2023-02-22T08:09:53;1.00;99.90
20400;DHT22;10359;53.596;22.520;2023-02-22T08:12:44;0.80;99.90
20400;DHT22;10359;53.596;22.520;2023-02-22T08:15:38;0.90;99.90
20400;DHT22;10359;53.596;22.520;2023-02-22T08:18:30;1.00;99.90
20400;DHT22;10359;53.596;22.520;2023-02-22T08:21:20;1.10;99.90
20400;DHT22;10359;53.596;22.520;2023-02-22T08:24:10;1.10;99.90
20400;DHT22;10359;53.596;22.520;2023-02-22T08:27:00;1.20;99.90
20400;DHT22;10359;53.596;22.520;2023-02-22T08:29:50;1.30;99.90
20400;DHT22;10359;53.596;22.520;2023-02-22T08:32:40;1.30;99.90
20400;DHT22;10359;53.596;22.520;2023-02-22T08:35:32;1.50;99.90
20400;DHT22;10359;53.596;22.520;2023-02-22T08:38:25;1.50;99.90
20400;DHT22;10359;53.596;22.520;2023-02-22T08:41:16;1.50;99.90
20400;DHT22;10359;53.596;22.520;2023-02-22T08:44:06;1.50;99.90
20400;DHT22;10359;53.596;22.520;2023-02-22T08:46:56;1.60;99.90
20400;DHT22;10359;53.596;22.520;2023-02-22T08:49:46;1.70;99.90
20400;DHT22;10359;53.596;22.520;2023-02-22T08:52:38;1.80;99.90
20400;DHT22;10359;53.596;22.520;2023-02-22T08:55:30;1.60;99.90
20400;DHT22;10359;53.596;22.520;2023-02-22T08:58:20;1.50;99.90
20400;DHT22;10359;53.596;22.520;2023-02-22T09:01:10;1.70;99.90
20400;DHT22;10359;53.596;22.520;2023-02-22T09:04:08;1.70;99.90
20400;DHT22;10359;53.596;22.520;2023-02-22T09:06:59;1.70;99.90
20400;DHT22;10359;53.596;22.520;2023-02-22T09:09:50;1.70;99.90
20400;DHT22;10359;53.596;22.520;2023-02-22T09:12:40;1.60;99.90
20400;DHT22;10359;53.596;22.520;2023-02-22T09:15:30;1.70;99.90
20400;DHT22;10359;53.596;22.520;2023-02-22T09:18:21;1.80;99.90
20400;DHT22;10359;53.596;22.520;2023-02-22T09:21:17;1.80;99.90
20400;DHT22;10359;53.596;22.520;2023-02-22T09:24:07;1.90;99.90
20400;DHT22;10359;53.596;22.520;2023-02-22T09:27:00;1.90;99.90
20400;DHT22;10359;53.596;22.520;2023-02-22T09:29:51;1.90;99.90
20400;DHT22;10359;53.596;22.520;2023-02-22T09:32:41;1.90;99.90
20400;DHT22;10359;53.596;22.520;2023-02-22T09:35:31;2.00;99.90
20400;DHT22;10359;53.596;22.520;2023-02-22T09:38:23;2.20;99.90
20400;DHT22;10359;53.596;22.520;2023-02-22T09:41:17;2.30;99.90
20400;DHT22;10359;53.596;22.520;2023-02-22T09:44:17;2.30;99.90
20400;DHT22;10359;53.596;22.520;2023-02-22T09:47:13;2.40;99.90
20400;DHT22;10359;53.596;22.520;2023-02-22T09:50:09;2.30;99.90
20400;DHT22;10359;53.596;22.520;2023-02-22T09:53:04;2.20;99.90
20400;DHT22;10359;53.596;22.520;2023-02-22T09:55:59;2.20;99.90
20400;DHT22;10359;53.596;22.520;2023-02-22T09:58:52;2.30;99.90
20400;DHT22;10359;53.596;22.520;2023-02-22T10:01:48;2.40;99.90
20400;DHT22;10359;53.596;22.520;2023-02-22T10:04:47;2.20;99.90
20400;DHT22;10359;53.596;22.520;2023-02-22T10:07:45;2.10;99.90
20400;DHT22;10359;53.596;22.520;2023-02-22T10:10:38;2.20;99.90
20400;DHT22;10359;53.596;22.520;2023-02-22T10:13:31;2.20;99.90
20400;DHT22;10359;53.596;22.520;2023-02-22T10:16:33;2.20;99.90
20400;DHT22;10359;53.596;22.520;2023-02-22T10:19:30;2.30;99.90
20400;DHT22;10359;53.596;22.520;2023-02-22T10:22:34;2.20;99.90
20400;DHT22;10359;53.596;22.520;2023-02-22T10:25:30;2.30;99.90
20400;DHT22;10359;53.596;22.520;2023-02-22T10:28:26;2.20;99.90
20400;DHT22;10359;53.596;22.520;2023-02-22T10:31:22;2.30;99.90
20400;DHT22;10359;53.596;22.520;2023-02-22T10:34:16;2.30;99.90
20400;DHT22;10359;53.596;22.520;2023-02-22T10:37:23;2.20;99.90
20400;DHT22;10359;53.596;22.520;2023-02-22T10:40:16;2.30;99.90
20400;DHT22;10359;53.596;22.520;2023-02-22T10:43:08;2.30;99.90
20400;DHT22;10359;53.596;22.520;2023-02-22T10:46:02;2.30;99.90
20400;DHT22;10359;53.596;22.520;2023-02-22T10:48:56;2.30;99.90
20400;DHT22;10359;53.596;22.520;2023-02-22T10:51:58;2.40;99.90
20400;DHT22;10359;53.596;22.520;2023-02-22T10:54:50;2.30;99.90
20400;DHT22;10359;53.596;22.520;2023-02-22T10:57:49;2.30;99.90
20400;DHT22;10359;53.596;22.520;2023-02-22T11:00:40;2.30;99.90
20400;DHT22;10359;53.596;22.520;2023-02-22T11:03:32;2.40;99.90
20400;DHT22;10359;53.596;22.520;2023-02-22T11:06:24;2.40;99.90
20400;DHT22;10359;53.596;22.520;2023-02-22T11:09:16;2.30;99.90
20400;DHT22;10359;53.596;22.520;2023-02-22T11:12:16;2.30;99.90
20400;DHT22;10359;53.596;22.520;2023-02-22T11:15:27;2.20;99.90
20400;DHT22;10359;53.596;22.520;2023-02-22T11:18:24;2.30;99.90
20400;DHT22;10359;53.596;22.520;2023-02-22T11:21:21;2.40;99.90
20400;DHT22;10359;53.596;22.520;2023-02-22T11:24:13;2.50;99.90
20400;DHT22;10359;53.596;22.520;2023-02-22T11:27:08;2.40;99.90
20400;DHT22;10359;53.596;22.520;2023-02-22T11:30:17;2.60;99.90
20400;DHT22;10359;53.596;22.520;2023-02-22T11:33:17;2.70;99.90
20400;DHT22;10359;53.596;22.520;2023-02-22T11:36:10;2.90;99.90
20400;DHT22;10359;53.596;22.520;2023-02-22T11:39:04;2.90;99.90
20400;DHT22;10359;53.596;22.520;2023-02-22T11:42:17;3.10;99.90
20400;DHT22;10359;53.596;22.520;2023-02-22T11:45:14;3.00;99.90
20400;DHT22;10359;53.596;22.520;2023-02-22T11:48:18;3.00;99.90
20400;DHT22;10359;53.596;22.520;2023-02-22T11:51:16;2.90;99.90
20400;DHT22;10359;53.596;22.520;2023-02-22T11:54:23;2.90;99.90
20400;DHT22;10359;53.596;22.520;2023-02-22T11:57:31;2.90;99.90
20400;DHT22;10359;53.596;22.520;2023-02-22T12:00:32;2.90;99.90
20400;DHT22;10359;53.596;22.520;2023-02-22T12:06:45;2.60;99.90
20400;DHT22;10359;53.596;22.520;2023-02-22T12:09:42;2.50;99.90
20400;DHT22;10359;53.596;22.520;2023-02-22T12:12:44;2.50;99.90
20400;DHT22;10359;53.596;22.520;2023-02-22T12:15:47;2.50;99.90
20400;DHT22;10359;53.596;22.520;2023-02-22T12:18:47;2.50;99.90
20400;DHT22;10359;53.596;22.520;2023-02-22T12:21:42;2.40;99.90
20400;DHT22;10359;53.596;22.520;2023-02-22T12:24:36;2.40;99.90
20400;DHT22;10359;53.596;22.520;2023-02-22T12:27:30;2.40;99.90
20400;DHT22;10359;53.596;22.520;2023-02-22T12:30:26;2.50;99.90
20400;DHT22;10359;53.596;22.520;2023-02-22T12:33:24;2.50;99.90
20400;DHT22;10359;53.596;22.520;2023-02-22T12:36:19;2.60;99.90
20400;DHT22;10359;53.596;22.520;2023-02-22T12:39:23;2.50;99.90
20400;DHT22;10359;53.596;22.520;2023-02-22T12:42:17;2.50;99.90
20400;DHT22;10359;53.596;22.520;2023-02-22T12:45:13;2.50;99.90
20400;DHT22;10359;53.596;22.520;2023-02-22T12:48:21;2.40;99.90
20400;DHT22;10359;53.596;22.520;2023-02-22T12:51:26;2.30;99.90
20400;DHT22;10359;53.596;22.520;2023-02-22T12:54:22;2.30;99.90
20400;DHT22;10359;53.596;22.520;2023-02-22T12:57:22;2.20;99.90
20400;DHT22;10359;53.596;22.520;2023-02-22T13:00:18;2.30;99.90
20400;DHT22;10359;53.596;22.520;2023-02-22T13:03:30;2.10;99.90
20400;DHT22;10359;53.596;22.520;2023-02-22T13:06:38;2.10;99.90
20400;DHT22;10359;53.596;22.520;2023-02-22T13:09:54;2.20;99.90
20400;DHT22;10359;53.596;22.520;2023-02-22T13:12:52;2.20;99.90
20400;DHT22;10359;53.596;22.520;2023-02-22T13:15:49;2.10;99.90
20400;DHT22;10359;53.596;22.520;2023-02-22T13:18:48;2.10;99.90
20400;DHT22;10359;53.596;22.520;2023-02-22T13:21:45;1.90;99.90
20400;DHT22;10359;53.596;22.520;2023-02-22T13:24:46;1.90;99.90
20400;DHT22;10359;53.596;22.520;2023-02-22T13:27:41;2.00;99.90
20400;DHT22;10359;53.596;22.520;2023-02-22T13:30:38;2.00;99.90
20400;DHT22;10359;53.596;22.520;2023-02-22T13:33:59;2.00;99.90
20400;DHT22;10359;53.596;22.520;2023-02-22T13:37:13;2.00;99.90
20400;DHT22;10359;53.596;22.520;2023-02-22T13:47:24;2.00;99.90
20400;DHT22;10359;53.596;22.520;2023-02-22T13:50:48;1.90;99.90
20400;DHT22;10359;53.596;22.520;2023-02-22T13:53:46;1.80;99.90
20400;DHT22;10359;53.596;22.520;2023-02-22T13:56:41;1.90;99.90
20400;DHT22;10359;53.596;22.520;2023-02-22T13:59:34;1.80;99.90
20400;DHT22;10359;53.596;22.520;2023-02-22T14:02:32;1.90;99.90
20400;DHT22;10359;53.596;22.520;2023-02-22T14:05:50;1.80;99.90
20400;DHT22;10359;53.596;22.520;2023-02-22T14:08:44;1.70;99.90
20400;DHT22;10359;53.596;22.520;2023-02-22T14:11:43;1.70;99.90
20400;DHT22;10359;53.596;22.520;2023-02-22T14:14:33;1.80;99.90
20400;DHT22;10359;53.596;22.520;2023-02-22T14:17:32;1.80;99.90
20400;DHT22;10359;53.596;22.520;2023-02-22T14:20:25;1.80;99.90
20400;DHT22;10359;53.596;22.520;2023-02-22T14:23:34;1.70;99.90
20400;DHT22;10359;53.596;22.520;2023-02-22T14:26:29;1.70;99.90
20400;DHT22;10359;53.596;22.520;2023-02-22T14:29:19;1.70;99.90
20400;DHT22;10359;53.596;22.520;2023-02-22T14:32:09;1.60;99.90
20400;DHT22;10359;53.596;22.520;2023-02-22T14:35:05;1.60;99.90
20400;DHT22;10359;53.596;22.520;2023-02-22T14:38:15;1.60;99.90
20400;DHT22;10359;53.596;22.520;2023-02-22T14:41:08;1.60;99.90
20400;DHT22;10359;53.596;22.520;2023-02-22T14:44:02;1.60;99.90
20400;DHT22;10359;53.596;22.520;2023-02-22T14:46:55;1.50;99.90
20400;DHT22;10359;53.596;22.520;2023-02-22T14:49:51;1.50;99.90
20400;DHT22;10359;53.596;22.520;2023-02-22T14:52:43;1.50;99.90
20400;DHT22;10359;53.596;22.520;2023-02-22T14:55:39;1.30;99.90
20400;DHT22;10359;53.596;22.520;2023-02-22T14:58:35;1.10;99.90
20400;DHT22;10359;53.596;22.520;2023-02-22T15:01:30;1.10;99.90
20400;DHT22;10359;53.596;22.520;2023-02-22T15:04:48;0.90;99.90
20400;DHT22;10359;53.596;22.520;2023-02-22T15:07:49;0.70;99.90
20400;DHT22;10359;53.596;22.520;2023-02-22T15:10:41;0.40;99.90
20400;DHT22;10359;53.596;22.520;2023-02-22T15:13:33;0.30;1.00
20400;DHT22;10359;53.596;22.520;2023-02-22T15:16:25;0.10;1.00
20400;DHT22;10359;53.596;22.520;2023-02-22T15:19:18;0.00;1.00
20400;DHT22;10359;53.596;22.520;2023-02-22T15:22:18;-0.10;1.00
20400;DHT22;10359;53.596;22.520;2023-02-22T15:25:10;-0.20;1.00
20400;DHT22;10359;53.596;22.520;2023-02-22T15:28:01;-0.30;1.00
20400;DHT22;10359;53.596;22.520;2023-02-22T15:31:24;-0.20;1.00
20400;DHT22;10359;53.596;22.520;2023-02-22T15:34:26;0.00;1.00
20400;DHT22;10359;53.596;22.520;2023-02-22T15:37:20;0.10;1.00
20400;DHT22;10359;53.596;22.520;2023-02-22T15:40:14;0.30;1.00
20400;DHT22;10359;53.596;22.520;2023-02-22T15:43:06;0.40;1.00
20400;DHT22;10359;53.596;22.520;2023-02-22T15:45:58;0.50;1.00
20400;DHT22;10359;53.596;22.520;2023-02-22T15:52:00;0.60;1.00
20400;DHT22;10359;53.596;22.520;2023-02-22T15:54:51;0.60;99.90
20400;DHT22;10359;53.596;22.520;2023-02-22T15:57:42;0.70;1.00
20400;DHT22;10359;53.596;22.520;2023-02-22T16:00:34;0.70;1.00
20400;DHT22;10359;53.596;22.520;2023-02-22T16:03:25;0.80;99.90
20400;DHT22;10359;53.596;22.520;2023-02-22T16:06:26;0.80;99.90
20400;DHT22;10359;53.596;22.520;2023-02-22T16:09:21;0.80;99.90
20400;DHT22;10359;53.596;22.520;2023-02-22T16:12:23;0.90;99.90
20400;DHT22;10359;53.596;22.520;2023-02-22T16:15:16;0.90;99.90
20400;DHT22;10359;53.596;22.520;2023-02-22T16:18:22;0.90;99.90
20400;DHT22;10359;53.596;22.520;2023-02-22T16:21:15;0.90;99.90
20400;DHT22;10359;53.596;22.520;2023-02-22T16:24:26;0.80;99.90
20400;DHT22;10359;53.596;22.520;2023-02-22T16:27:18;0.80;99.90
20400;DHT22;10359;53.596;22.520;2023-02-22T16:30:24;0.80;1.00
20400;DHT22;10359;53.596;22.520;2023-02-22T16:33:14;0.80;99.90
20400;DHT22;10359;53.596;22.520;2023-02-22T16:36:06;0.80;1.00
20400;DHT22;10359;53.596;22.520;2023-02-22T16:38:56;0.80;1.00
20400;DHT22;10359;53.596;22.520;2023-02-22T16:41:48;0.80;1.00
20400;DHT22;10359;53.596;22.520;2023-02-22T16:44:38;0.80;1.00
20400;DHT22;10359;53.596;22.520;2023-02-22T16:47:28;0.80;1.00
20400;DHT22;10359;53.596;22.520;2023-02-22T16:50:19;0.80;1.00
20400;DHT22;10359;53.596;22.520;2023-02-22T16:53:11;0.80;1.00
20400;DHT22;10359;53.596;22.520;2023-02-22T16:56:03;0.70;1.00
20400;DHT22;10359;53.596;22.520;2023-02-22T16:58:55;0.70;99.90
20400;DHT22;10359;53.596;22.520;2023-02-22T17:01:46;0.70;1.00
20400;DHT22;10359;53.596;22.520;2023-02-22T17:04:35;0.70;1.00
20400;DHT22;10359;53.596;22.520;2023-02-22T17:07:27;0.60;99.90
20400;DHT22;10359;53.596;22.520;2023-02-22T17:10:18;0.60;1.00
20400;DHT22;10359;53.596;22.520;2023-02-22T17:13:09;0.60;1.00
20400;DHT22;10359;53.596;22.520;2023-02-22T17:16:13;0.60;1.00
20400;DHT22;10359;53.596;22.520;2023-02-22T17:19:10;0.50;99.90
20400;DHT22;10359;53.596;22.520;2023-02-22T17:22:17;0.50;99.90
20400;DHT22;10359;53.596;22.520;2023-02-22T17:25:21;0.40;99.90
20400;DHT22;10359;53.596;22.520;2023-02-22T17:28:19;0.50;99.90
20400;DHT22;10359;53.596;22.520;2023-02-22T17:31:25;0.50;99.90
20400;DHT22;10359;53.596;22.520;2023-02-22T17:34:23;0.40;99.90
20400;DHT22;10359;53.596;22.520;2023-02-22T17:37:19;0.40;99.90
20400;DHT22;10359;53.596;22.520;2023-02-22T17:40:13;0.50;99.90
20400;DHT22;10359;53.596;22.520;2023-02-22T17:43:12;0.50;99.90
20400;DHT22;10359;53.596;22.520;2023-02-22T17:46:08;0.50;99.90
20400;DHT22;10359;53.596;22.520;2023-02-22T17:49:04;0.40;99.90
20400;DHT22;10359;53.596;22.520;2023-02-22T17:51:54;0.30;99.90
20400;DHT22;10359;53.596;22.520;2023-02-22T17:54:46;0.30;99.90
20400;DHT22;10359;53.596;22.520;2023-02-22T17:57:36;0.30;99.90
20400;DHT22;10359;53.596;22.520;2023-02-22T18:00:34;0.20;1.00
20400;DHT22;10359;53.596;22.520;2023-02-22T18:03:27;-0.10;99.90
20400;DHT22;10359;53.596;22.520;2023-02-22T18:06:22;-0.50;99.90
20400;DHT22;10359;53.596;22.520;2023-02-22T18:09:16;-0.80;99.90
20400;DHT22;10359;53.596;22.520;2023-02-22T18:12:14;-1.10;99.90
20400;DHT22;10359;53.596;22.520;2023-02-22T18:15:07;-1.30;99.90
20400;DHT22;10359;53.596;22.520;2023-02-22T18:17:58;-1.50;99.90
20400;DHT22;10359;53.596;22.520;2023-02-22T18:20:50;-1.70;99.90
20400;DHT22;10359;53.596;22.520;2023-02-22T18:23:51;-1.80;99.90
20400;DHT22;10359;53.596;22.520;2023-02-22T18:26:47;-1.90;99.90
20400;DHT22;10359;53.596;22.520;2023-02-22T18:29:45;-2.00;1.00
20400;DHT22;10359;53.596;22.520;2023-02-22T18:32:39;-2.10;1.00
20400;DHT22;10359;53.596;22.520;2023-02-22T18:35:36;-2.20;1.00
20400;DHT22;10359;53.596;22.520;2023-02-22T18:38:27;-2.30;1.00
20400;DHT22;10359;53.596;22.520;2023-02-22T18:41:23;-2.30;1.00
20400;DHT22;10359;53.596;22.520;2023-02-22T18:44:16;-2.40;1.00
20400;DHT22;10359;53.596;22.520;2023-02-22T18:47:08;-2.50;1.00
20400;DHT22;10359;53.596;22.520;2023-02-22T18:50:00;-2.60;1.00
20400;DHT22;10359;53.596;22.520;2023-02-22T18:52:51;-2.60;1.00
20400;DHT22;10359;53.596;22.520;2023-02-22T18:55:42;-2.70;1.00
20400;DHT22;10359;53.596;22.520;2023-02-22T18:58:37;-2.70;1.00
20400;DHT22;10359;53.596;22.520;2023-02-22T19:01:31;-2.80;1.00
20400;DHT22;10359;53.596;22.520;2023-02-22T19:04:27;-2.90;1.00
20400;DHT22;10359;53.596;22.520;2023-02-22T19:07:19;-2.90;1.00
20400;DHT22;10359;53.596;22.520;2023-02-22T19:10:16;-3.00;1.00
20400;DHT22;10359;53.596;22.520;2023-02-22T19:13:10;-3.00;1.00
20400;DHT22;10359;53.596;22.520;2023-02-22T19:16:04;-3.10;1.00
20400;DHT22;10359;53.596;22.520;2023-02-22T19:18:56;-3.40;1.00
20400;DHT22;10359;53.596;22.520;2023-02-22T19:21:48;-3.20;1.00
20400;DHT22;10359;53.596;22.520;2023-02-22T19:24:45;-3.30;1.00
20400;DHT22;10359;53.596;22.520;2023-02-22T19:27:36;-3.40;1.00
20400;DHT22;10359;53.596;22.520;2023-02-22T19:30:30;-3.60;1.00
20400;DHT22;10359;53.596;22.520;2023-02-22T19:33:25;-3.40;1.00
20400;DHT22;10359;53.596;22.520;2023-02-22T19:36:19;-3.50;1.00
20400;DHT22;10359;53.596;22.520;2023-02-22T19:39:13;-3.50;1.00
20400;DHT22;10359;53.596;22.520;2023-02-22T19:42:05;-3.50;1.00
20400;DHT22;10359;53.596;22.520;2023-02-22T19:44:58;-3.60;1.00
20400;DHT22;10359;53.596;22.520;2023-02-22T19:47:53;-3.40;1.00
20400;DHT22;10359;53.596;22.520;2023-02-22T19:50:47;-3.60;1.00
20400;DHT22;10359;53.596;22.520;2023-02-22T19:53:47;-3.70;1.00
20400;DHT22;10359;53.596;22.520;2023-02-22T19:56:39;-3.80;1.00
20400;DHT22;10359;53.596;22.520;2023-02-22T19:59:32;-3.80;1.00
20400;DHT22;10359;53.596;22.520;2023-02-22T20:02:25;-3.80;1.00
20400;DHT22;10359;53.596;22.520;2023-02-22T20:05:19;-3.90;1.00
20400;DHT22;10359;53.596;22.520;2023-02-22T20:08:12;-4.20;1.00
20400;DHT22;10359;53.596;22.520;2023-02-22T20:11:03;-3.70;1.00
20400;DHT22;10359;53.596;22.520;2023-02-22T20:13:55;-4.00;1.00
20400;DHT22;10359;53.596;22.520;2023-02-22T20:16:47;-4.00;1.00
20400;DHT22;10359;53.596;22.520;2023-02-22T20:19:40;-3.90;1.00
20400;DHT22;10359;53.596;22.520;2023-02-22T20:22:31;-3.90;1.00
20400;DHT22;10359;53.596;22.520;2023-02-22T20:25:31;-4.00;1.00
20400;DHT22;10359;53.596;22.520;2023-02-22T20:28:23;-3.80;1.00
20400;DHT22;10359;53.596;22.520;2023-02-22T20:31:15;-3.90;1.00
20400;DHT22;10359;53.596;22.520;2023-02-22T20:34:09;-4.20;1.00
20400;DHT22;10359;53.596;22.520;2023-02-22T20:37:06;-4.00;1.00
20400;DHT22;10359;53.596;22.520;2023-02-22T20:39:59;-4.30;1.00
20400;DHT22;10359;53.596;22.520;2023-02-22T20:42:54;-4.20;1.00
20400;DHT22;10359;53.596;22.520;2023-02-22T20:45:45;-4.20;1.00
20400;DHT22;10359;53.596;22.520;2023-02-22T20:48:37;-4.30;1.00
20400;DHT22;10359;53.596;22.520;2023-02-22T20:51:30;-4.50;1.00
20400;DHT22;10359;53.596;22.520;2023-02-22T20:54:22;-4.30;1.00
20400;DHT22;10359;53.596;22.520;2023-02-22T20:57:14;-4.30;1.00
20400;DHT22;10359;53.596;22.520;2023-02-22T21:00:08;-4.40;1.00
20400;DHT22;10359;53.596;22.520;2023-02-22T21:02:59;-4.50;1.00
20400;DHT22;10359;53.596;22.520;2023-02-22T21:05:51;-4.80;1.00
20400;DHT22;10359;53.596;22.520;2023-02-22T21:08:41;-4.50;1.00
20400;DHT22;10359;53.596;22.520;2023-02-22T21:11:33;-4.60;1.00
20400;DHT22;10359;53.596;22.520;2023-02-22T21:14:24;-4.50;1.00
20400;DHT22;10359;53.596;22.520;2023-02-22T21:17:19;-4.60;1.00
20400;DHT22;10359;53.596;22.520;2023-02-22T21:20:18;-4.60;1.00
20400;DHT22;10359;53.596;22.520;2023-02-22T21:23:10;-4.50;1.00
20400;DHT22;10359;53.596;22.520;2023-02-22T21:26:00;-4.70;1.00
20400;DHT22;10359;53.596;22.520;2023-02-22T21:28:53;-4.80;1.00
20400;DHT22;10359;53.596;22.520;2023-02-22T21:31:44;-4.60;1.00
20400;DHT22;10359;53.596;22.520;2023-02-22T21:34:42;-5.30;1.00
20400;DHT22;10359;53.596;22.520;2023-02-22T21:37:52;-5.00;1.00
20400;DHT22;10359;53.596;22.520;2023-02-22T21:41:16;-5.00;1.00
20400;DHT22;10359;53.596;22.520;2023-02-22T21:44:08;-4.90;1.00
20400;DHT22;10359;53.596;22.520;2023-02-22T21:46:58;-4.80;1.00
20400;DHT22;10359;53.596;22.520;2023-02-22T21:49:51;-5.00;1.00
20400;DHT22;10359;53.596;22.520;2023-02-22T21:52:43;-5.00;1.00
20400;DHT22;10359;53.596;22.520;2023-02-22T21:55:33;-4.90;1.00
20400;DHT22;10359;53.596;22.520;2023-02-22T21:58:25;-5.10;1.00
20400;DHT22;10359;53.596;22.520;2023-02-22T22:01:17;-4.90;1.00
20400;DHT22;10359;53.596;22.520;2023-02-22T22:04:07;-5.20;1.00
20400;DHT22;10359;53.596;22.520;2023-02-22T22:07:00;-5.20;1.00
20400;DHT22;10359;53.596;22.520;2023-02-22T22:09:50;-5.20;1.00
20400;DHT22;10359;53.596;22.520;2023-02-22T22:12:44;-5.40;1.00
20400;DHT22;10359;53.596;22.520;2023-02-22T22:15:37;-5.20;1.00
20400;DHT22;10359;53.596;22.520;2023-02-22T22:18:27;-5.30;1.00
20400;DHT22;10359;53.596;22.520;2023-02-22T22:21:17;-5.30;1.00
20400;DHT22;10359;53.596;22.520;2023-02-22T22:24:11;-5.30;1.00
20400;DHT22;10359;53.596;22.520;2023-02-22T22:27:01;-5.20;1.00
20400;DHT22;10359;53.596;22.520;2023-02-22T22:29:53;-5.30;1.00
20400;DHT22;10359;53.596;22.520;2023-02-22T22:32:44;-5.30;1.00
20400;DHT22;10359;53.596;22.520;2023-02-22T22:35:34;-5.40;1.00
20400;DHT22;10359;53.596;22.520;2023-02-22T22:38:26;-5.20;1.00
20400;DHT22;10359;53.596;22.520;2023-02-22T22:41:19;-5.20;1.00
20400;DHT22;10359;53.596;22.520;2023-02-22T22:44:09;-5.40;1.00
20400;DHT22;10359;53.596;22.520;2023-02-22T22:46:59;-5.40;1.00
20400;DHT22;10359;53.596;22.520;2023-02-22T22:49:48;-5.30;1.00
20400;DHT22;10359;53.596;22.520;2023-02-22T22:52:39;-5.40;1.00
20400;DHT22;10359;53.596;22.520;2023-02-22T22:55:29;-5.30;1.00
20400;DHT22;10359;53.596;22.520;2023-02-22T22:58:21;-5.50;1.00
20400;DHT22;10359;53.596;22.520;2023-02-22T23:01:13;-5.50;1.00
20400;DHT22;10359;53.596;22.520;2023-02-22T23:04:09;-5.50;1.00
20400;DHT22;10359;53.596;22.520;2023-02-22T23:06:59;-5.40;1.00
20400;DHT22;10359;53.596;22.520;2023-02-22T23:09:48;-5.60;1.00
20400;DHT22;10359;53.596;22.520;2023-02-22T23:12:38;-5.40;1.00
20400;DHT22;10359;53.596;22.520;2023-02-22T23:15:29;-5.70;1.00
20400;DHT22;10359;53.596;22.520;2023-02-22T23:18:19;-5.50;1.00
20400;DHT22;10359;53.596;22.520;2023-02-22T23:21:09;-5.60;1.00
20400;DHT22;10359;53.596;22.520;2023-02-22T23:23:59;-5.70;1.00